TVF64HG LEMG-LFLL
Flight info
| Callsign | TVF64HG |
|---|---|
| Flight time | 1h 42m |
| Altitude | 36000 |
| Route | BLN L27 YAKXU DCT RONNY DCT TOPTU DCT TOU DCT GAI DCT MEN DCT NINUN UN871 MEZIN |
| Aircraft | B738/M-SDE2E3FGHIRWXY/LB1 |
Departure
| Time | 2026-05-07 19:01 |
|---|---|
| Airport | Málaga-Costa del Sol Airport (LEMG) |
Arrival
| Time | 2026-05-07 20:43 |
|---|---|
| Airport | Lyon Saint-Exupéry Airport (LFLL) |
| Time | Latitude | Longitude | Altitude | Speed | Heading |
|---|---|---|---|---|---|
| 2026-05-07 18:46 | 36.67892 | -4.49495 | 39 ft | 0 kts | 213° |
| 2026-05-07 18:53 | 36.67894 | -4.49494 | 41 ft | 3 kts | 213° |
| 2026-05-07 18:54 | 36.67909 | -4.49480 | 41 ft | 3 kts | 214° |
| 2026-05-07 18:54 | 36.67926 | -4.49467 | 38 ft | 2 kts | 218° |
| 2026-05-07 18:54 | 36.67933 | -4.49458 | 40 ft | 1 kts | 252° |
| 2026-05-07 18:54 | 36.67933 | -4.49448 | 40 ft | 1 kts | 293° |
| 2026-05-07 18:55 | 36.67930 | -4.49439 | 39 ft | 1 kts | 304° |
| 2026-05-07 18:55 | 36.67925 | -4.49430 | 40 ft | 1 kts | 308° |
| 2026-05-07 18:55 | 36.67923 | -4.49427 | 38 ft | 0 kts | 308° |
| 2026-05-07 18:56 | 36.67925 | -4.49431 | 40 ft | 7 kts | 309° |
| 2026-05-07 18:56 | 36.67980 | -4.49509 | 41 ft | 13 kts | 311° |
| 2026-05-07 18:57 | 36.68018 | -4.49600 | 41 ft | 12 kts | 255° |
| 2026-05-07 18:57 | 36.67951 | -4.49684 | 41 ft | 15 kts | 222° |
| 2026-05-07 18:57 | 36.67868 | -4.49776 | 41 ft | 16 kts | 220° |
| 2026-05-07 18:57 | 36.67784 | -4.49860 | 41 ft | 16 kts | 204° |
| 2026-05-07 18:58 | 36.67718 | -4.49935 | 42 ft | 9 kts | 296° |
| 2026-05-07 18:58 | 36.67762 | -4.49994 | 43 ft | 12 kts | 313° |
| 2026-05-07 18:58 | 36.67841 | -4.50104 | 43 ft | 19 kts | 311° |
| 2026-05-07 18:58 | 36.67925 | -4.50222 | 44 ft | 18 kts | 311° |
| 2026-05-07 18:59 | 36.68015 | -4.50348 | 43 ft | 28 kts | 313° |
| 2026-05-07 18:59 | 36.68160 | -4.50552 | 43 ft | 31 kts | 311° |
| 2026-05-07 18:59 | 36.68299 | -4.50746 | 45 ft | 29 kts | 311° |
| 2026-05-07 18:59 | 36.68430 | -4.50930 | 49 ft | 27 kts | 310° |
| 2026-05-07 19:00 | 36.68494 | -4.51127 | 55 ft | 26 kts | 243° |
| 2026-05-07 19:00 | 36.68414 | -4.51201 | 60 ft | 15 kts | 148° |
| 2026-05-07 19:00 | 36.68277 | -4.51012 | 58 ft | 62 kts | 132° |
| 2026-05-07 19:00 | 36.67799 | -4.50342 | 54 ft | 142 kts | 131° |
| 2026-05-07 19:01 | 36.67043 | -4.49292 | 549 ft | 171 kts | 130° |
| 2026-05-07 19:01 | 36.66236 | -4.48163 | 1526 ft | 180 kts | 132° |
| 2026-05-07 19:01 | 36.65418 | -4.46959 | 2453 ft | 188 kts | 130° |
| 2026-05-07 19:01 | 36.64569 | -4.45603 | 2835 ft | 215 kts | 129° |
| 2026-05-07 19:02 | 36.63603 | -4.44043 | 3087 ft | 237 kts | 129° |
| 2026-05-07 19:02 | 36.62567 | -4.42371 | 3560 ft | 247 kts | 129° |
| 2026-05-07 19:02 | 36.61487 | -4.40634 | 3967 ft | 263 kts | 129° |
| 2026-05-07 19:02 | 36.60330 | -4.38788 | 4561 ft | 274 kts | 129° |
| 2026-05-07 19:03 | 36.59386 | -4.36766 | 5408 ft | 276 kts | 107° |
| 2026-05-07 19:03 | 36.59147 | -4.34415 | 6427 ft | 273 kts | 90° |
| 2026-05-07 19:03 | 36.59127 | -4.32015 | 7171 ft | 280 kts | 89° |
| 2026-05-07 19:03 | 36.59514 | -4.29626 | 7911 ft | 285 kts | 65° |
| 2026-05-07 19:04 | 36.60432 | -4.27436 | 8753 ft | 288 kts | 60° |
| 2026-05-07 19:04 | 36.61442 | -4.25250 | 9519 ft | 293 kts | 59° |
| 2026-05-07 19:04 | 36.62467 | -4.23070 | 10260 ft | 298 kts | 58° |
| 2026-05-07 19:04 | 36.63831 | -4.21015 | 10509 ft | 320 kts | 37° |
| 2026-05-07 19:05 | 36.65862 | -4.19702 | 10724 ft | 341 kts | 17° |
| 2026-05-07 19:05 | 36.68158 | -4.18824 | 11114 ft | 355 kts | 15° |
| 2026-05-07 19:05 | 36.70549 | -4.17930 | 11728 ft | 361 kts | 15° |
| 2026-05-07 19:05 | 36.72976 | -4.17012 | 12448 ft | 365 kts | 15° |
| 2026-05-07 19:06 | 36.75420 | -4.16074 | 13156 ft | 370 kts | 15° |
| 2026-05-07 19:06 | 36.80372 | -4.14145 | 14437 ft | 379 kts | 15° |
| 2026-05-07 19:06 | 36.82906 | -4.13148 | 15075 ft | 383 kts | 15° |
| 2026-05-07 19:07 | 36.85465 | -4.12139 | 15706 ft | 387 kts | 14° |
| 2026-05-07 19:07 | 36.88049 | -4.11117 | 16326 ft | 391 kts | 14° |
| 2026-05-07 19:07 | 36.90636 | -4.10093 | 16934 ft | 395 kts | 14° |
| 2026-05-07 19:07 | 36.93277 | -4.09048 | 17544 ft | 400 kts | 13° |
| 2026-05-07 19:08 | 36.95949 | -4.07990 | 18141 ft | 404 kts | 13° |
| 2026-05-07 19:08 | 36.98614 | -4.06933 | 18656 ft | 408 kts | 13° |
| 2026-05-07 19:08 | 37.01333 | -4.05854 | 19181 ft | 411 kts | 13° |
| 2026-05-07 19:08 | 37.04072 | -4.04766 | 19712 ft | 414 kts | 13° |
| 2026-05-07 19:09 | 37.06837 | -4.03666 | 20258 ft | 417 kts | 13° |
| 2026-05-07 19:09 | 37.09579 | -4.02575 | 20796 ft | 420 kts | 13° |
| 2026-05-07 19:09 | 37.12370 | -4.01464 | 21300 ft | 423 kts | 13° |
| 2026-05-07 19:09 | 37.15193 | -4.00340 | 21769 ft | 426 kts | 13° |
| 2026-05-07 19:10 | 37.18029 | -3.99211 | 22245 ft | 430 kts | 13° |
| 2026-05-07 19:10 | 37.20896 | -3.98095 | 22715 ft | 432 kts | 12° |
| 2026-05-07 19:10 | 37.23793 | -3.97010 | 23196 ft | 434 kts | 11° |
| 2026-05-07 19:10 | 37.26672 | -3.95949 | 23603 ft | 438 kts | 11° |
| 2026-05-07 19:11 | 37.29610 | -3.94867 | 23968 ft | 441 kts | 11° |
| 2026-05-07 19:11 | 37.32574 | -3.93772 | 24399 ft | 443 kts | 11° |
| 2026-05-07 19:11 | 37.35547 | -3.92667 | 24809 ft | 445 kts | 11° |
| 2026-05-07 19:11 | 37.38521 | -3.91558 | 25202 ft | 447 kts | 11° |
| 2026-05-07 19:12 | 37.41476 | -3.90453 | 25573 ft | 449 kts | 11° |
| 2026-05-07 19:12 | 37.44490 | -3.89324 | 25912 ft | 452 kts | 11° |
| 2026-05-07 19:12 | 37.47516 | -3.88189 | 26272 ft | 454 kts | 11° |
| 2026-05-07 19:12 | 37.50557 | -3.87046 | 26640 ft | 456 kts | 11° |
| 2026-05-07 19:13 | 37.53576 | -3.85912 | 26987 ft | 458 kts | 11° |
| 2026-05-07 19:13 | 37.56640 | -3.84759 | 27331 ft | 460 kts | 11° |
| 2026-05-07 19:13 | 37.59722 | -3.83599 | 27665 ft | 462 kts | 11° |
| 2026-05-07 19:13 | 37.62818 | -3.82433 | 27952 ft | 465 kts | 11° |
| 2026-05-07 19:14 | 37.65926 | -3.81261 | 28274 ft | 467 kts | 11° |
| 2026-05-07 19:14 | 37.69047 | -3.80083 | 28620 ft | 469 kts | 11° |
| 2026-05-07 19:14 | 37.72179 | -3.78900 | 28946 ft | 471 kts | 11° |
| 2026-05-07 19:14 | 37.75320 | -3.77712 | 29235 ft | 473 kts | 11° |
| 2026-05-07 19:15 | 37.78481 | -3.76517 | 29526 ft | 475 kts | 11° |
| 2026-05-07 19:15 | 37.81612 | -3.75330 | 29817 ft | 477 kts | 10° |
| 2026-05-07 19:15 | 37.84794 | -3.74125 | 30066 ft | 479 kts | 10° |
| 2026-05-07 19:15 | 37.87989 | -3.72912 | 30358 ft | 479 kts | 10° |
| 2026-05-07 19:16 | 37.91177 | -3.71699 | 30711 ft | 477 kts | 10° |
| 2026-05-07 19:16 | 37.94355 | -3.70489 | 31081 ft | 476 kts | 9° |
| 2026-05-07 19:16 | 37.97522 | -3.69283 | 31397 ft | 475 kts | 9° |
| 2026-05-07 19:16 | 38.00688 | -3.68078 | 31689 ft | 475 kts | 9° |
| 2026-05-07 19:17 | 38.03853 | -3.66872 | 31985 ft | 475 kts | 9° |
| 2026-05-07 19:17 | 38.07016 | -3.65666 | 32325 ft | 474 kts | 9° |
| 2026-05-07 19:17 | 38.10176 | -3.64459 | 32631 ft | 473 kts | 8° |
| 2026-05-07 19:17 | 38.13287 | -3.63271 | 32916 ft | 473 kts | 8° |
| 2026-05-07 19:18 | 38.16437 | -3.62044 | 33224 ft | 474 kts | 10° |
| 2026-05-07 19:18 | 38.19555 | -3.60668 | 33543 ft | 475 kts | 12° |
| 2026-05-07 19:18 | 38.22661 | -3.59191 | 33833 ft | 476 kts | 12° |
| 2026-05-07 19:18 | 38.25754 | -3.57682 | 34085 ft | 477 kts | 12° |
| 2026-05-07 19:19 | 38.28854 | -3.56166 | 34341 ft | 476 kts | 12° |
| 2026-05-07 19:19 | 38.31939 | -3.54670 | 34612 ft | 474 kts | 12° |
| 2026-05-07 19:19 | 38.35034 | -3.53183 | 34849 ft | 474 kts | 12° |
| 2026-05-07 19:19 | 38.38080 | -3.51731 | 35087 ft | 473 kts | 12° |
| 2026-05-07 19:20 | 38.41154 | -3.50269 | 35468 ft | 469 kts | 11° |
| 2026-05-07 19:20 | 38.44208 | -3.48818 | 35724 ft | 469 kts | 11° |
| 2026-05-07 19:20 | 38.47270 | -3.47367 | 35839 ft | 471 kts | 11° |
| 2026-05-07 19:20 | 38.50344 | -3.45909 | 35914 ft | 471 kts | 11° |
| 2026-05-07 19:21 | 38.56497 | -3.42982 | 35929 ft | 471 kts | 11° |
| 2026-05-07 19:21 | 38.62636 | -3.40051 | 35939 ft | 472 kts | 11° |
| 2026-05-07 19:22 | 38.68846 | -3.37089 | 35946 ft | 481 kts | 12° |
| 2026-05-07 19:22 | 38.75117 | -3.34087 | 35946 ft | 486 kts | 12° |
| 2026-05-07 19:23 | 38.81466 | -3.31035 | 35932 ft | 488 kts | 12° |
| 2026-05-07 19:23 | 38.87820 | -3.27975 | 35942 ft | 487 kts | 12° |
| 2026-05-07 19:24 | 38.94161 | -3.24919 | 35940 ft | 487 kts | 12° |
| 2026-05-07 19:24 | 39.00487 | -3.21866 | 35941 ft | 485 kts | 12° |
| 2026-05-07 19:25 | 39.06801 | -3.18824 | 35937 ft | 483 kts | 12° |
| 2026-05-07 19:25 | 39.13077 | -3.15800 | 35945 ft | 481 kts | 12° |
| 2026-05-07 19:26 | 39.18279 | -3.13288 | 35946 ft | 480 kts | 12° |
| 2026-05-07 19:26 | 39.25532 | -3.09779 | 35952 ft | 478 kts | 12° |
| 2026-05-07 19:27 | 39.31755 | -3.06760 | 35951 ft | 477 kts | 12° |
| 2026-05-07 19:27 | 39.37969 | -3.03741 | 35955 ft | 477 kts | 12° |
| 2026-05-07 19:28 | 39.43124 | -3.01225 | 35955 ft | 476 kts | 12° |
| 2026-05-07 19:28 | 39.50322 | -2.97681 | 35959 ft | 476 kts | 12° |
| 2026-05-07 19:29 | 39.55507 | -2.95125 | 35953 ft | 475 kts | 12° |
| 2026-05-07 19:29 | 39.61688 | -2.92077 | 35958 ft | 475 kts | 12° |
| 2026-05-07 19:30 | 39.67827 | -2.89056 | 35965 ft | 475 kts | 12° |
| 2026-05-07 19:30 | 39.74005 | -2.86013 | 35965 ft | 475 kts | 12° |
| 2026-05-07 19:31 | 39.80188 | -2.82958 | 35957 ft | 475 kts | 12° |
| 2026-05-07 19:31 | 39.86356 | -2.79904 | 35971 ft | 474 kts | 12° |
| 2026-05-07 19:32 | 39.92529 | -2.76842 | 35966 ft | 474 kts | 12° |
| 2026-05-07 19:32 | 39.98694 | -2.73777 | 35959 ft | 474 kts | 12° |
| 2026-05-07 19:33 | 40.04810 | -2.70731 | 35959 ft | 474 kts | 12° |
| 2026-05-07 19:33 | 40.10966 | -2.67660 | 35964 ft | 473 kts | 12° |
| 2026-05-07 19:34 | 40.17116 | -2.64585 | 35967 ft | 473 kts | 12° |
| 2026-05-07 19:34 | 40.23258 | -2.61509 | 35964 ft | 473 kts | 13° |
| 2026-05-07 19:35 | 40.29399 | -2.58426 | 35963 ft | 472 kts | 13° |
| 2026-05-07 19:35 | 40.35527 | -2.55344 | 35967 ft | 472 kts | 13° |
| 2026-05-07 19:36 | 40.41579 | -2.51895 | 35967 ft | 477 kts | 18° |
| 2026-05-07 19:36 | 40.47454 | -2.47950 | 35976 ft | 477 kts | 19° |
| 2026-05-07 19:37 | 40.53358 | -2.43957 | 35979 ft | 477 kts | 19° |
| 2026-05-07 19:37 | 40.59283 | -2.40027 | 35970 ft | 477 kts | 19° |
| 2026-05-07 19:38 | 40.65214 | -2.36125 | 35970 ft | 476 kts | 19° |
| 2026-05-07 19:38 | 40.71143 | -2.32221 | 35974 ft | 476 kts | 19° |
| 2026-05-07 19:39 | 40.77072 | -2.28305 | 35988 ft | 476 kts | 19° |
| 2026-05-07 19:39 | 40.82999 | -2.24380 | 35982 ft | 476 kts | 20° |
| 2026-05-07 19:40 | 40.88881 | -2.20476 | 35980 ft | 476 kts | 20° |
| 2026-05-07 19:40 | 40.94798 | -2.16542 | 35990 ft | 476 kts | 20° |
| 2026-05-07 19:41 | 41.00727 | -2.12592 | 35984 ft | 477 kts | 20° |
| 2026-05-07 19:41 | 41.06649 | -2.08639 | 35990 ft | 477 kts | 20° |
| 2026-05-07 19:42 | 41.12459 | -2.04293 | 35984 ft | 482 kts | 26° |
| 2026-05-07 19:42 | 41.18065 | -1.99500 | 35987 ft | 483 kts | 27° |
| 2026-05-07 19:43 | 41.23703 | -1.94652 | 35995 ft | 483 kts | 27° |
| 2026-05-07 19:43 | 41.29374 | -1.89857 | 35986 ft | 483 kts | 27° |
| 2026-05-07 19:44 | 41.35056 | -1.85085 | 35982 ft | 483 kts | 27° |
| 2026-05-07 19:44 | 41.40742 | -1.80309 | 35991 ft | 483 kts | 27° |
| 2026-05-07 19:45 | 41.46391 | -1.75549 | 35985 ft | 483 kts | 27° |
| 2026-05-07 19:45 | 41.52075 | -1.70747 | 35979 ft | 484 kts | 27° |
| 2026-05-07 19:46 | 41.57760 | -1.65933 | 35984 ft | 484 kts | 27° |
| 2026-05-07 19:46 | 41.63447 | -1.61107 | 35981 ft | 484 kts | 28° |
| 2026-05-07 19:47 | 41.69140 | -1.56266 | 35987 ft | 485 kts | 28° |
| 2026-05-07 19:47 | 41.74826 | -1.51422 | 35980 ft | 485 kts | 28° |
| 2026-05-07 19:48 | 41.80486 | -1.46589 | 35979 ft | 485 kts | 28° |
| 2026-05-07 19:48 | 41.86181 | -1.41715 | 35978 ft | 486 kts | 28° |
| 2026-05-07 19:49 | 41.91884 | -1.36824 | 35973 ft | 486 kts | 28° |
| 2026-05-07 19:49 | 41.97582 | -1.31927 | 35982 ft | 486 kts | 29° |
| 2026-05-07 19:50 | 42.03279 | -1.27018 | 35981 ft | 486 kts | 29° |
| 2026-05-07 19:50 | 42.08981 | -1.22097 | 35985 ft | 486 kts | 29° |
| 2026-05-07 19:51 | 42.14360 | -1.16618 | 35989 ft | 489 kts | 37° |
| 2026-05-07 19:51 | 42.19558 | -1.10679 | 35986 ft | 490 kts | 37° |
| 2026-05-07 19:52 | 42.24780 | -1.04771 | 35990 ft | 490 kts | 37° |
| 2026-05-07 19:52 | 42.30036 | -0.98900 | 35984 ft | 490 kts | 37° |
| 2026-05-07 19:53 | 42.35295 | -0.93029 | 35995 ft | 490 kts | 37° |
| 2026-05-07 19:53 | 42.40519 | -0.87177 | 35997 ft | 490 kts | 37° |
| 2026-05-07 19:54 | 42.45308 | -0.80614 | 36012 ft | 493 kts | 51° |
| 2026-05-07 19:54 | 42.49427 | -0.73191 | 36003 ft | 493 kts | 52° |
| 2026-05-07 19:55 | 42.53571 | -0.65778 | 36010 ft | 493 kts | 51° |
| 2026-05-07 19:55 | 42.57742 | -0.58403 | 36017 ft | 493 kts | 51° |
| 2026-05-07 19:56 | 42.61927 | -0.51017 | 36017 ft | 493 kts | 51° |
| 2026-05-07 19:56 | 42.66077 | -0.43671 | 36023 ft | 493 kts | 52° |
| 2026-05-07 19:57 | 42.70246 | -0.36266 | 36010 ft | 493 kts | 52° |
| 2026-05-07 19:57 | 42.74412 | -0.28847 | 36021 ft | 493 kts | 52° |
| 2026-05-07 19:58 | 42.78572 | -0.21422 | 36015 ft | 493 kts | 52° |
| 2026-05-07 19:58 | 42.82804 | -0.14052 | 35994 ft | 494 kts | 50° |
| 2026-05-07 19:59 | 42.87182 | -0.06844 | 35996 ft | 494 kts | 50° |
| 2026-05-07 19:59 | 42.91565 | 0.00363 | 35998 ft | 493 kts | 50° |
| 2026-05-07 20:00 | 42.95920 | 0.07608 | 35967 ft | 493 kts | 50° |
| 2026-05-07 20:00 | 43.00228 | 0.14827 | 35963 ft | 494 kts | 51° |
| 2026-05-07 20:01 | 43.04564 | 0.22117 | 35952 ft | 494 kts | 51° |
| 2026-05-07 20:01 | 43.08893 | 0.29411 | 35955 ft | 494 kts | 51° |
| 2026-05-07 20:02 | 43.13223 | 0.36722 | 35959 ft | 494 kts | 51° |
| 2026-05-07 20:02 | 43.17552 | 0.44049 | 35973 ft | 494 kts | 51° |
| 2026-05-07 20:03 | 43.21849 | 0.51341 | 35969 ft | 494 kts | 51° |
| 2026-05-07 20:03 | 43.26169 | 0.58690 | 35956 ft | 494 kts | 51° |
| 2026-05-07 20:04 | 43.30479 | 0.66038 | 35974 ft | 494 kts | 51° |
| 2026-05-07 20:04 | 43.34781 | 0.73393 | 35964 ft | 494 kts | 51° |
| 2026-05-07 20:05 | 43.39077 | 0.80757 | 35953 ft | 494 kts | 51° |
| 2026-05-07 20:05 | 43.43367 | 0.88128 | 35962 ft | 494 kts | 51° |
| 2026-05-07 20:06 | 43.47655 | 0.95515 | 35960 ft | 494 kts | 51° |
| 2026-05-07 20:06 | 43.51909 | 1.02861 | 35957 ft | 494 kts | 51° |
| 2026-05-07 20:07 | 43.56185 | 1.10265 | 35966 ft | 494 kts | 52° |
| 2026-05-07 20:07 | 43.60461 | 1.17689 | 35961 ft | 494 kts | 52° |
| 2026-05-07 20:08 | 43.64727 | 1.25113 | 35965 ft | 494 kts | 52° |
| 2026-05-07 20:08 | 43.68983 | 1.32557 | 35971 ft | 494 kts | 52° |
| 2026-05-07 20:09 | 43.73082 | 1.40168 | 35974 ft | 493 kts | 54° |
| 2026-05-07 20:10 | 43.79144 | 1.51672 | 35963 ft | 493 kts | 54° |
| 2026-05-07 20:10 | 43.83207 | 1.59333 | 35968 ft | 493 kts | 54° |
| 2026-05-07 20:11 | 43.87268 | 1.66992 | 35961 ft | 493 kts | 54° |
| 2026-05-07 20:11 | 43.91292 | 1.74604 | 35962 ft | 493 kts | 54° |
| 2026-05-07 20:12 | 43.95343 | 1.82286 | 35970 ft | 493 kts | 54° |
| 2026-05-07 20:12 | 43.99293 | 1.90053 | 35972 ft | 492 kts | 56° |
| 2026-05-07 20:13 | 44.03165 | 1.97895 | 35971 ft | 492 kts | 56° |
| 2026-05-07 20:13 | 44.07035 | 2.05741 | 35976 ft | 491 kts | 56° |
| 2026-05-07 20:14 | 44.10884 | 2.13524 | 35981 ft | 491 kts | 56° |
| 2026-05-07 20:14 | 44.14757 | 2.21358 | 35979 ft | 491 kts | 56° |
| 2026-05-07 20:15 | 44.18623 | 2.29200 | 35991 ft | 491 kts | 56° |
| 2026-05-07 20:15 | 44.22485 | 2.37057 | 35990 ft | 491 kts | 56° |
| 2026-05-07 20:16 | 44.26339 | 2.44920 | 35995 ft | 491 kts | 56° |
| 2026-05-07 20:16 | 44.30191 | 2.52800 | 35995 ft | 491 kts | 56° |
| 2026-05-07 20:17 | 44.34011 | 2.60637 | 35994 ft | 491 kts | 56° |
| 2026-05-07 20:17 | 44.37850 | 2.68533 | 36000 ft | 491 kts | 56° |
| 2026-05-07 20:18 | 44.41688 | 2.76448 | 36000 ft | 492 kts | 56° |
| 2026-05-07 20:18 | 44.45523 | 2.84381 | 36000 ft | 492 kts | 56° |
| 2026-05-07 20:19 | 44.49360 | 2.92337 | 36004 ft | 493 kts | 56° |
| 2026-05-07 20:19 | 44.53190 | 3.00304 | 36012 ft | 493 kts | 56° |
| 2026-05-07 20:20 | 44.56994 | 3.08237 | 36008 ft | 494 kts | 56° |
| 2026-05-07 20:20 | 44.60817 | 3.16243 | 36013 ft | 494 kts | 57° |
| 2026-05-07 20:21 | 44.64302 | 3.24547 | 36005 ft | 493 kts | 62° |
| 2026-05-07 20:21 | 44.65936 | 3.28721 | 35978 ft | 481 kts | 62° |
| 2026-05-07 20:21 | 44.67523 | 3.32781 | 35999 ft | 465 kts | 62° |
| 2026-05-07 20:21 | 44.69069 | 3.36697 | 35960 ft | 452 kts | 61° |
| 2026-05-07 20:22 | 44.70578 | 3.40488 | 35707 ft | 439 kts | 61° |
| 2026-05-07 20:22 | 44.72063 | 3.44197 | 35301 ft | 430 kts | 61° |
| 2026-05-07 20:22 | 44.73526 | 3.47849 | 34327 ft | 437 kts | 62° |
| 2026-05-07 20:22 | 44.75044 | 3.51644 | 32911 ft | 452 kts | 62° |
| 2026-05-07 20:23 | 44.76607 | 3.55564 | 31476 ft | 465 kts | 62° |
| 2026-05-07 20:23 | 44.78199 | 3.59567 | 30491 ft | 467 kts | 62° |
| 2026-05-07 20:23 | 44.79775 | 3.63547 | 29745 ft | 461 kts | 62° |
| 2026-05-07 20:23 | 44.81319 | 3.67457 | 29055 ft | 452 kts | 62° |
| 2026-05-07 20:24 | 44.82833 | 3.71298 | 28372 ft | 444 kts | 62° |
| 2026-05-07 20:24 | 44.84297 | 3.75019 | 27662 ft | 438 kts | 62° |
| 2026-05-07 20:24 | 44.85774 | 3.78774 | 26946 ft | 432 kts | 62° |
| 2026-05-07 20:24 | 44.87220 | 3.82456 | 26246 ft | 426 kts | 62° |
| 2026-05-07 20:25 | 44.88641 | 3.86081 | 25569 ft | 421 kts | 62° |
| 2026-05-07 20:25 | 44.90051 | 3.89680 | 24911 ft | 415 kts | 62° |
| 2026-05-07 20:25 | 44.91423 | 3.93186 | 24276 ft | 410 kts | 62° |
| 2026-05-07 20:25 | 44.92789 | 3.96682 | 23656 ft | 405 kts | 62° |
| 2026-05-07 20:26 | 44.94141 | 4.00147 | 22919 ft | 400 kts | 62° |
| 2026-05-07 20:26 | 44.95479 | 4.03579 | 22216 ft | 394 kts | 62° |
| 2026-05-07 20:26 | 44.96791 | 4.06951 | 21516 ft | 390 kts | 62° |
| 2026-05-07 20:26 | 44.98089 | 4.10288 | 20848 ft | 385 kts | 62° |
| 2026-05-07 20:27 | 44.99372 | 4.13591 | 20177 ft | 381 kts | 62° |
| 2026-05-07 20:27 | 45.00639 | 4.16854 | 19521 ft | 376 kts | 62° |
| 2026-05-07 20:27 | 45.01862 | 4.20057 | 18894 ft | 372 kts | 65° |
| 2026-05-07 20:27 | 45.02849 | 4.23418 | 18265 ft | 368 kts | 71° |
| 2026-05-07 20:28 | 45.03662 | 4.26826 | 17548 ft | 364 kts | 73° |
| 2026-05-07 20:28 | 45.04434 | 4.30237 | 16842 ft | 361 kts | 73° |
| 2026-05-07 20:28 | 45.05195 | 4.33559 | 16164 ft | 358 kts | 72° |
| 2026-05-07 20:28 | 45.05978 | 4.36895 | 15498 ft | 355 kts | 72° |
| 2026-05-07 20:29 | 45.06768 | 4.40196 | 14850 ft | 352 kts | 72° |
| 2026-05-07 20:29 | 45.07561 | 4.43473 | 14234 ft | 349 kts | 72° |
| 2026-05-07 20:29 | 45.08332 | 4.46642 | 13803 ft | 341 kts | 71° |
| 2026-05-07 20:29 | 45.09106 | 4.49817 | 13380 ft | 333 kts | 72° |
| 2026-05-07 20:30 | 45.09844 | 4.52850 | 13020 ft | 328 kts | 72° |
| 2026-05-07 20:30 | 45.10584 | 4.55893 | 12646 ft | 323 kts | 72° |
| 2026-05-07 20:30 | 45.11310 | 4.58883 | 12269 ft | 319 kts | 72° |
| 2026-05-07 20:30 | 45.12025 | 4.61837 | 11919 ft | 315 kts | 72° |
| 2026-05-07 20:31 | 45.12730 | 4.64749 | 11552 ft | 311 kts | 72° |
| 2026-05-07 20:31 | 45.13192 | 4.66664 | 11330 ft | 308 kts | 72° |
| 2026-05-07 20:31 | 45.13918 | 4.69494 | 11022 ft | 306 kts | 64° |
| 2026-05-07 20:31 | 45.15749 | 4.72533 | 10656 ft | 309 kts | 43° |
| 2026-05-07 20:32 | 45.16808 | 4.73907 | 10448 ft | 313 kts | 43° |
| 2026-05-07 20:32 | 45.18421 | 4.76024 | 10067 ft | 318 kts | 44° |
| 2026-05-07 20:32 | 45.20042 | 4.78153 | 9662 ft | 317 kts | 43° |
| 2026-05-07 20:32 | 45.21659 | 4.80273 | 9236 ft | 316 kts | 43° |
| 2026-05-07 20:33 | 45.23273 | 4.82387 | 8820 ft | 313 kts | 43° |
| 2026-05-07 20:33 | 45.24835 | 4.84433 | 8395 ft | 305 kts | 43° |
| 2026-05-07 20:33 | 45.26373 | 4.86448 | 7989 ft | 297 kts | 43° |
| 2026-05-07 20:33 | 45.27874 | 4.88415 | 7566 ft | 290 kts | 43° |
| 2026-05-07 20:34 | 45.29422 | 4.90215 | 7170 ft | 284 kts | 35° |
| 2026-05-07 20:34 | 45.31064 | 4.91735 | 6775 ft | 279 kts | 32° |
| 2026-05-07 20:34 | 45.32679 | 4.93157 | 6399 ft | 274 kts | 32° |
| 2026-05-07 20:34 | 45.34287 | 4.94574 | 5989 ft | 269 kts | 32° |
| 2026-05-07 20:35 | 45.35862 | 4.95979 | 5582 ft | 265 kts | 32° |
| 2026-05-07 20:35 | 45.37413 | 4.97377 | 5180 ft | 261 kts | 33° |
| 2026-05-07 20:35 | 45.38935 | 4.98760 | 4780 ft | 258 kts | 33° |
| 2026-05-07 20:35 | 45.40441 | 5.00134 | 4444 ft | 253 kts | 33° |
| 2026-05-07 20:36 | 45.41867 | 5.01441 | 4236 ft | 239 kts | 33° |
| 2026-05-07 20:36 | 45.43223 | 5.02686 | 4011 ft | 224 kts | 33° |
| 2026-05-07 20:36 | 45.44490 | 5.03851 | 3778 ft | 210 kts | 33° |
| 2026-05-07 20:36 | 45.45698 | 5.04964 | 3543 ft | 203 kts | 33° |
| 2026-05-07 20:37 | 45.46875 | 5.06048 | 3357 ft | 195 kts | 33° |
| 2026-05-07 20:37 | 45.47977 | 5.07063 | 3343 ft | 186 kts | 33° |
| 2026-05-07 20:37 | 45.49061 | 5.08064 | 3302 ft | 185 kts | 33° |
| 2026-05-07 20:37 | 45.50115 | 5.09037 | 3203 ft | 181 kts | 33° |
| 2026-05-07 20:38 | 45.51158 | 5.10000 | 3092 ft | 176 kts | 33° |
| 2026-05-07 20:38 | 45.52177 | 5.10941 | 3092 ft | 174 kts | 33° |
| 2026-05-07 20:38 | 45.53286 | 5.11596 | 3063 ft | 171 kts | 1° |
| 2026-05-07 20:38 | 45.54460 | 5.11499 | 2944 ft | 165 kts | 357° |
| 2026-05-07 20:39 | 45.55557 | 5.11393 | 2975 ft | 153 kts | 355° |
| 2026-05-07 20:39 | 45.56591 | 5.11261 | 3090 ft | 151 kts | 355° |
| 2026-05-07 20:39 | 45.57629 | 5.11131 | 3102 ft | 148 kts | 355° |
| 2026-05-07 20:39 | 45.58665 | 5.11003 | 3104 ft | 149 kts | 355° |
| 2026-05-07 20:40 | 45.59701 | 5.10876 | 3103 ft | 150 kts | 356° |
| 2026-05-07 20:40 | 45.60735 | 5.10749 | 2980 ft | 152 kts | 356° |
| 2026-05-07 20:40 | 45.61787 | 5.10621 | 2797 ft | 150 kts | 355° |
| 2026-05-07 20:40 | 45.62814 | 5.10494 | 2602 ft | 146 kts | 356° |
| 2026-05-07 20:41 | 45.63825 | 5.10371 | 2416 ft | 146 kts | 356° |
| 2026-05-07 20:41 | 45.64837 | 5.10248 | 2210 ft | 145 kts | 355° |
| 2026-05-07 20:41 | 45.65844 | 5.10125 | 2031 ft | 145 kts | 355° |
| 2026-05-07 20:41 | 45.66855 | 5.10002 | 1828 ft | 145 kts | 355° |
| 2026-05-07 20:42 | 45.67863 | 5.09879 | 1599 ft | 146 kts | 354° |
| 2026-05-07 20:42 | 45.68875 | 5.09765 | 1327 ft | 146 kts | 354° |
| 2026-05-07 20:42 | 45.69880 | 5.09635 | 1120 ft | 144 kts | 354° |
| 2026-05-07 20:42 | 45.70881 | 5.09506 | 911 ft | 143 kts | 355° |
| 2026-05-07 20:43 | 45.71850 | 5.09385 | 815 ft | 128 kts | 354° |
| 2026-05-07 20:43 | 45.72494 | 5.09309 | 806 ft | 64 kts | 355° |
| 2026-05-07 20:43 | 45.72884 | 5.09152 | 798 ft | 43 kts | 326° |
| 2026-05-07 20:43 | 45.72964 | 5.08912 | 793 ft | 24 kts | 264° |
| 2026-05-07 20:44 | 45.72950 | 5.08681 | 793 ft | 23 kts | 265° |
| 2026-05-07 20:44 | 45.72937 | 5.08461 | 793 ft | 22 kts | 264° |
| 2026-05-07 20:44 | 45.72826 | 5.08349 | 795 ft | 22 kts | 174° |
| 2026-05-07 20:44 | 45.72679 | 5.08370 | 797 ft | 21 kts | 174° |
| 2026-05-07 20:45 | 45.72537 | 5.08387 | 799 ft | 20 kts | 175° |
| 2026-05-07 20:45 | 45.72399 | 5.08404 | 801 ft | 20 kts | 176° |
| 2026-05-07 20:45 | 45.72241 | 5.08424 | 804 ft | 24 kts | 173° |
| 2026-05-07 20:45 | 45.72079 | 5.08443 | 806 ft | 23 kts | 175° |
| 2026-05-07 20:46 | 45.71923 | 5.08462 | 809 ft | 22 kts | 174° |
| 2026-05-07 20:46 | 45.71771 | 5.08481 | 811 ft | 22 kts | 176° |
| 2026-05-07 20:46 | 45.71679 | 5.08365 | 813 ft | 21 kts | 265° |
| 2026-05-07 20:46 | 45.71691 | 5.08167 | 813 ft | 8 kts | 284° |
| 2026-05-07 20:47 | 45.71692 | 5.08160 | 813 ft | 1 kts | 271° |
| 2026-05-07 20:47 | 45.71687 | 5.08156 | 813 ft | 1 kts | 213° |
| 2026-05-07 20:47 | 45.71670 | 5.08162 | 813 ft | 6 kts | 166° |
| 2026-05-07 20:47 | 45.71620 | 5.08152 | 814 ft | 0 kts | 195° |